La Habra, California
Current Conditions -  °F | °C
As of 12:53 PM on Thursday 20 Nov 2014 (Local Time) from KFUL Reporting Station
Scattered Clouds Scattered Clouds  
Wind Chill: 69°   Ceiling: Unl
Heat Index: 69°   Visibility: 10mi
Dew Point: 53°   Wind: 3mph
Humidity: 57%   Direction: 280°W
Pressure: 30.03"   Gusts: NA
Location:  33.93°N, 117.94°W
Report Text: KFUL 202053Z 28003KT 10SM SCT039 21/12 A3003 RMK AO2 SLP167 T02060117 58024
Loading
Personal Weather Stations






























Interactive Weather Map New forecast layout! Learn more

10-Day Weather Forecast

Advertisements
Track Severe Weather on mobile